sensor_id;sensor_type;location;lat;lon;timestamp;pressure;altitude;pressure_sealevel;temperature
73937;BMP180;59249;59.736;30.568;2024-02-14T00:02:26;101779.00;;;-12.50
73937;BMP180;59249;59.736;30.568;2024-02-14T00:05:08;101775.00;;;-12.50
73937;BMP180;59249;59.736;30.568;2024-02-14T00:07:39;101777.00;;;-12.50
73937;BMP180;59249;59.736;30.568;2024-02-14T00:10:09;101779.00;;;-12.50
73937;BMP180;59249;59.736;30.568;2024-02-14T00:12:43;101770.00;;;-12.60
73937;BMP180;59249;59.736;30.568;2024-02-14T00:15:15;101783.00;;;-12.60
73937;BMP180;59249;59.736;30.568;2024-02-14T00:17:49;101777.00;;;-12.60
73937;BMP180;59249;59.736;30.568;2024-02-14T00:20:21;101781.00;;;-12.70
73937;BMP180;59249;59.736;30.568;2024-02-14T00:23:01;101780.00;;;-12.60
73937;BMP180;59249;59.736;30.568;2024-02-14T00:25:33;101767.00;;;-12.60
73937;BMP180;59249;59.736;30.568;2024-02-14T00:28:05;101763.00;;;-12.60
73937;BMP180;59249;59.736;30.568;2024-02-14T00:30:34;101767.00;;;-12.70
73937;BMP180;59249;59.736;30.568;2024-02-14T00:33:25;101756.00;;;-12.70
73937;BMP180;59249;59.736;30.568;2024-02-14T00:35:55;101757.00;;;-12.70
73937;BMP180;59249;59.736;30.568;2024-02-14T00:38:24;101761.00;;;-12.70
73937;BMP180;59249;59.736;30.568;2024-02-14T00:40:55;101763.00;;;-12.60
73937;BMP180;59249;59.736;30.568;2024-02-14T00:43:26;101764.00;;;-12.60
73937;BMP180;59249;59.736;30.568;2024-02-14T00:45:55;101763.00;;;-12.60
73937;BMP180;59249;59.736;30.568;2024-02-14T00:48:25;101758.00;;;-12.60
73937;BMP180;59249;59.736;30.568;2024-02-14T00:50:58;101757.00;;;-12.70
73937;BMP180;59249;59.736;30.568;2024-02-14T00:53:30;101759.00;;;-12.70
73937;BMP180;59249;59.736;30.568;2024-02-14T00:56:01;101762.00;;;-12.60
73937;BMP180;59249;59.736;30.568;2024-02-14T00:58:33;101755.00;;;-12.70
73937;BMP180;59249;59.736;30.568;2024-02-14T01:01:06;101756.00;;;-12.70
73937;BMP180;59249;59.736;30.568;2024-02-14T01:03:36;101763.00;;;-12.70
73937;BMP180;59249;59.736;30.568;2024-02-14T01:06:06;101757.00;;;-12.70
73937;BMP180;59249;59.736;30.568;2024-02-14T01:08:41;101766.00;;;-12.70
73937;BMP180;59249;59.736;30.568;2024-02-14T01:11:12;101768.00;;;-12.70
73937;BMP180;59249;59.736;30.568;2024-02-14T01:13:42;101766.00;;;-12.70
73937;BMP180;59249;59.736;30.568;2024-02-14T01:16:12;101766.00;;;-12.70
73937;BMP180;59249;59.736;30.568;2024-02-14T01:18:43;101766.00;;;-12.70
73937;BMP180;59249;59.736;30.568;2024-02-14T01:21:17;101767.00;;;-12.70
73937;BMP180;59249;59.736;30.568;2024-02-14T01:23:46;101753.00;;;-12.70
73937;BMP180;59249;59.736;30.568;2024-02-14T01:26:16;101758.00;;;-12.70
73937;BMP180;59249;59.736;30.568;2024-02-14T01:28:47;101745.00;;;-12.70
73937;BMP180;59249;59.736;30.568;2024-02-14T01:31:20;101768.00;;;-12.70
73937;BMP180;59249;59.736;30.568;2024-02-14T01:33:49;101755.00;;;-12.70
73937;BMP180;59249;59.736;30.568;2024-02-14T01:36:19;101754.00;;;-12.60
73937;BMP180;59249;59.736;30.568;2024-02-14T01:38:56;101764.00;;;-12.70
73937;BMP180;59249;59.736;30.568;2024-02-14T01:41:26;101756.00;;;-12.70
73937;BMP180;59249;59.736;30.568;2024-02-14T01:44:05;101758.00;;;-12.70
73937;BMP180;59249;59.736;30.568;2024-02-14T01:46:38;101753.00;;;-12.70
73937;BMP180;59249;59.736;30.568;2024-02-14T01:49:09;101757.00;;;-12.70
73937;BMP180;59249;59.736;30.568;2024-02-14T01:51:47;101753.00;;;-12.60
73937;BMP180;59249;59.736;30.568;2024-02-14T01:54:24;101764.00;;;-12.70
73937;BMP180;59249;59.736;30.568;2024-02-14T01:56:56;101764.00;;;-12.70
73937;BMP180;59249;59.736;30.568;2024-02-14T01:59:33;101761.00;;;-12.70
73937;BMP180;59249;59.736;30.568;2024-02-14T02:02:05;101755.00;;;-12.70
73937;BMP180;59249;59.736;30.568;2024-02-14T02:04:37;101766.00;;;-12.70
73937;BMP180;59249;59.736;30.568;2024-02-14T02:07:10;101761.00;;;-12.70
73937;BMP180;59249;59.736;30.568;2024-02-14T02:09:39;101757.00;;;-12.70
73937;BMP180;59249;59.736;30.568;2024-02-14T02:12:10;101755.00;;;-12.70
73937;BMP180;59249;59.736;30.568;2024-02-14T02:15:02;101751.00;;;-12.70
73937;BMP180;59249;59.736;30.568;2024-02-14T02:17:52;101754.00;;;-12.70
73937;BMP180;59249;59.736;30.568;2024-02-14T02:20:41;101752.00;;;-12.70
73937;BMP180;59249;59.736;30.568;2024-02-14T02:23:12;101744.00;;;-12.70
73937;BMP180;59249;59.736;30.568;2024-02-14T02:25:44;101751.00;;;-12.70
73937;BMP180;59249;59.736;30.568;2024-02-14T02:28:33;101744.00;;;-12.80
73937;BMP180;59249;59.736;30.568;2024-02-14T02:31:03;101745.00;;;-12.80
73937;BMP180;59249;59.736;30.568;2024-02-14T02:33:35;101742.00;;;-12.80
73937;BMP180;59249;59.736;30.568;2024-02-14T02:36:05;101754.00;;;-12.80
73937;BMP180;59249;59.736;30.568;2024-02-14T02:38:57;101746.00;;;-12.80
73937;BMP180;59249;59.736;30.568;2024-02-14T02:41:47;101755.00;;;-12.80
73937;BMP180;59249;59.736;30.568;2024-02-14T02:44:55;101746.00;;;-12.90
73937;BMP180;59249;59.736;30.568;2024-02-14T02:47:48;101746.00;;;-12.90
73937;BMP180;59249;59.736;30.568;2024-02-14T02:50:39;101732.00;;;-12.90
73937;BMP180;59249;59.736;30.568;2024-02-14T02:53:32;101743.00;;;-12.90
73937;BMP180;59249;59.736;30.568;2024-02-14T02:56:23;101723.00;;;-12.90
73937;BMP180;59249;59.736;30.568;2024-02-14T02:58:56;101732.00;;;-12.90
73937;BMP180;59249;59.736;30.568;2024-02-14T03:01:26;101730.00;;;-12.90
73937;BMP180;59249;59.736;30.568;2024-02-14T03:04:18;101741.00;;;-12.90
73937;BMP180;59249;59.736;30.568;2024-02-14T03:07:08;101734.00;;;-12.90
73937;BMP180;59249;59.736;30.568;2024-02-14T03:09:57;101732.00;;;-12.90
73937;BMP180;59249;59.736;30.568;2024-02-14T03:12:48;101740.00;;;-12.90
73937;BMP180;59249;59.736;30.568;2024-02-14T03:15:37;101737.00;;;-12.90
73937;BMP180;59249;59.736;30.568;2024-02-14T03:18:07;101729.00;;;-12.90
73937;BMP180;59249;59.736;30.568;2024-02-14T03:20:37;101740.00;;;-12.90
73937;BMP180;59249;59.736;30.568;2024-02-14T03:23:06;101735.00;;;-12.90
73937;BMP180;59249;59.736;30.568;2024-02-14T03:25:36;101748.00;;;-12.90
73937;BMP180;59249;59.736;30.568;2024-02-14T03:28:07;101753.00;;;-12.90
73937;BMP180;59249;59.736;30.568;2024-02-14T03:30:36;101761.00;;;-12.80
73937;BMP180;59249;59.736;30.568;2024-02-14T03:33:07;101757.00;;;-12.90
73937;BMP180;59249;59.736;30.568;2024-02-14T03:35:37;101750.00;;;-12.90
73937;BMP180;59249;59.736;30.568;2024-02-14T03:38:08;101760.00;;;-12.80
73937;BMP180;59249;59.736;30.568;2024-02-14T03:40:38;101765.00;;;-12.70
73937;BMP180;59249;59.736;30.568;2024-02-14T03:43:10;101757.00;;;-12.80
73937;BMP180;59249;59.736;30.568;2024-02-14T03:45:39;101762.00;;;-12.70
73937;BMP180;59249;59.736;30.568;2024-02-14T03:48:09;101765.00;;;-12.60
73937;BMP180;59249;59.736;30.568;2024-02-14T03:50:39;101760.00;;;-12.60
73937;BMP180;59249;59.736;30.568;2024-02-14T03:53:13;101751.00;;;-12.50
73937;BMP180;59249;59.736;30.568;2024-02-14T03:55:48;101763.00;;;-12.50
73937;BMP180;59249;59.736;30.568;2024-02-14T03:58:21;101769.00;;;-12.40
73937;BMP180;59249;59.736;30.568;2024-02-14T04:00:52;101778.00;;;-12.40
73937;BMP180;59249;59.736;30.568;2024-02-14T04:03:22;101762.00;;;-12.40
73937;BMP180;59249;59.736;30.568;2024-02-14T04:05:51;101771.00;;;-12.40
73937;BMP180;59249;59.736;30.568;2024-02-14T04:08:21;101773.00;;;-12.30
73937;BMP180;59249;59.736;30.568;2024-02-14T04:10:50;101782.00;;;-12.40
73937;BMP180;59249;59.736;30.568;2024-02-14T04:13:24;101763.00;;;-12.40
73937;BMP180;59249;59.736;30.568;2024-02-14T04:15:54;101776.00;;;-12.40
73937;BMP180;59249;59.736;30.568;2024-02-14T04:18:33;101787.00;;;-12.40
73937;BMP180;59249;59.736;30.568;2024-02-14T04:21:03;101785.00;;;-12.40
73937;BMP180;59249;59.736;30.568;2024-02-14T04:23:37;101777.00;;;-12.50
73937;BMP180;59249;59.736;30.568;2024-02-14T04:26:07;101779.00;;;-12.50
73937;BMP180;59249;59.736;30.568;2024-02-14T04:28:40;101780.00;;;-12.50
73937;BMP180;59249;59.736;30.568;2024-02-14T04:31:09;101769.00;;;-12.50
73937;BMP180;59249;59.736;30.568;2024-02-14T04:33:51;101773.00;;;-12.50
73937;BMP180;59249;59.736;30.568;2024-02-14T04:36:22;101792.00;;;-12.50
73937;BMP180;59249;59.736;30.568;2024-02-14T04:38:51;101786.00;;;-12.50
73937;BMP180;59249;59.736;30.568;2024-02-14T04:41:20;101775.00;;;-12.50
73937;BMP180;59249;59.736;30.568;2024-02-14T04:43:52;101781.00;;;-12.50
73937;BMP180;59249;59.736;30.568;2024-02-14T04:46:21;101783.00;;;-12.50
73937;BMP180;59249;59.736;30.568;2024-02-14T04:48:50;101769.00;;;-12.50
73937;BMP180;59249;59.736;30.568;2024-02-14T04:51:21;101762.00;;;-12.50
73937;BMP180;59249;59.736;30.568;2024-02-14T04:53:50;101769.00;;;-12.50
73937;BMP180;59249;59.736;30.568;2024-02-14T04:56:21;101778.00;;;-12.50
73937;BMP180;59249;59.736;30.568;2024-02-14T04:58:57;101787.00;;;-12.40
73937;BMP180;59249;59.736;30.568;2024-02-14T05:01:26;101781.00;;;-12.40
73937;BMP180;59249;59.736;30.568;2024-02-14T05:03:55;101791.00;;;-12.40
73937;BMP180;59249;59.736;30.568;2024-02-14T05:06:26;101801.00;;;-12.40
73937;BMP180;59249;59.736;30.568;2024-02-14T05:08:56;101789.00;;;-12.40
73937;BMP180;59249;59.736;30.568;2024-02-14T05:11:26;101813.00;;;-12.40
73937;BMP180;59249;59.736;30.568;2024-02-14T05:13:57;101797.00;;;-12.30
73937;BMP180;59249;59.736;30.568;2024-02-14T05:16:28;101798.00;;;-12.30
73937;BMP180;59249;59.736;30.568;2024-02-14T05:18:58;101787.00;;;-12.20
73937;BMP180;59249;59.736;30.568;2024-02-14T05:21:28;101788.00;;;-12.20
73937;BMP180;59249;59.736;30.568;2024-02-14T05:23:58;101789.00;;;-12.20
73937;BMP180;59249;59.736;30.568;2024-02-14T05:26:27;101797.00;;;-12.10
73937;BMP180;59249;59.736;30.568;2024-02-14T05:28:57;101795.00;;;-12.20
73937;BMP180;59249;59.736;30.568;2024-02-14T05:31:42;101803.00;;;-12.10
73937;BMP180;59249;59.736;30.568;2024-02-14T05:34:12;101800.00;;;-12.00
73937;BMP180;59249;59.736;30.568;2024-02-14T05:36:42;101802.00;;;-12.00
73937;BMP180;59249;59.736;30.568;2024-02-14T05:39:13;101809.00;;;-12.00
73937;BMP180;59249;59.736;30.568;2024-02-14T05:41:43;101813.00;;;-11.90
73937;BMP180;59249;59.736;30.568;2024-02-14T05:44:14;101803.00;;;-11.90
73937;BMP180;59249;59.736;30.568;2024-02-14T05:46:43;101815.00;;;-11.90
73937;BMP180;59249;59.736;30.568;2024-02-14T05:49:13;101795.00;;;-11.90
73937;BMP180;59249;59.736;30.568;2024-02-14T05:51:43;101809.00;;;-11.90
73937;BMP180;59249;59.736;30.568;2024-02-14T05:54:12;101811.00;;;-11.90
73937;BMP180;59249;59.736;30.568;2024-02-14T05:56:42;101823.00;;;-11.90
73937;BMP180;59249;59.736;30.568;2024-02-14T05:59:11;101809.00;;;-11.80
73937;BMP180;59249;59.736;30.568;2024-02-14T06:01:41;101818.00;;;-11.80
73937;BMP180;59249;59.736;30.568;2024-02-14T06:04:10;101822.00;;;-11.80
73937;BMP180;59249;59.736;30.568;2024-02-14T06:06:39;101814.00;;;-11.70
73937;BMP180;59249;59.736;30.568;2024-02-14T06:09:09;101822.00;;;-11.60
73937;BMP180;59249;59.736;30.568;2024-02-14T06:11:39;101817.00;;;-11.60
73937;BMP180;59249;59.736;30.568;2024-02-14T06:14:08;101821.00;;;-11.60
73937;BMP180;59249;59.736;30.568;2024-02-14T06:16:37;101823.00;;;-11.60
73937;BMP180;59249;59.736;30.568;2024-02-14T06:19:08;101829.00;;;-11.60
73937;BMP180;59249;59.736;30.568;2024-02-14T06:21:38;101813.00;;;-11.50
73937;BMP180;59249;59.736;30.568;2024-02-14T06:24:10;101826.00;;;-11.40
73937;BMP180;59249;59.736;30.568;2024-02-14T06:26:45;101815.00;;;-11.40
73937;BMP180;59249;59.736;30.568;2024-02-14T06:29:15;101820.00;;;-11.40
73937;BMP180;59249;59.736;30.568;2024-02-14T06:31:45;101814.00;;;-11.40
73937;BMP180;59249;59.736;30.568;2024-02-14T06:34:16;101821.00;;;-11.30
73937;BMP180;59249;59.736;30.568;2024-02-14T06:36:47;101819.00;;;-11.30
73937;BMP180;59249;59.736;30.568;2024-02-14T06:39:16;101824.00;;;-11.30
73937;BMP180;59249;59.736;30.568;2024-02-14T06:41:48;101818.00;;;-11.30
73937;BMP180;59249;59.736;30.568;2024-02-14T06:44:26;101823.00;;;-11.20
73937;BMP180;59249;59.736;30.568;2024-02-14T06:47:07;101833.00;;;-11.10
73937;BMP180;59249;59.736;30.568;2024-02-14T06:49:38;101813.00;;;-11.10
73937;BMP180;59249;59.736;30.568;2024-02-14T06:52:08;101821.00;;;-10.90
73937;BMP180;59249;59.736;30.568;2024-02-14T06:54:38;101824.00;;;-10.90
73937;BMP180;59249;59.736;30.568;2024-02-14T06:57:07;101807.00;;;-10.90
73937;BMP180;59249;59.736;30.568;2024-02-14T06:59:36;101813.00;;;-10.80
73937;BMP180;59249;59.736;30.568;2024-02-14T07:02:06;101825.00;;;-10.80
73937;BMP180;59249;59.736;30.568;2024-02-14T07:04:41;101803.00;;;-10.70
73937;BMP180;59249;59.736;30.568;2024-02-14T07:07:14;101828.00;;;-10.70
73937;BMP180;59249;59.736;30.568;2024-02-14T07:09:43;101811.00;;;-10.60
73937;BMP180;59249;59.736;30.568;2024-02-14T07:12:12;101822.00;;;-10.60
73937;BMP180;59249;59.736;30.568;2024-02-14T07:14:42;101822.00;;;-10.60
73937;BMP180;59249;59.736;30.568;2024-02-14T07:17:12;101811.00;;;-10.50
73937;BMP180;59249;59.736;30.568;2024-02-14T07:19:43;101816.00;;;-10.40
73937;BMP180;59249;59.736;30.568;2024-02-14T07:22:17;101820.00;;;-10.30
73937;BMP180;59249;59.736;30.568;2024-02-14T07:24:46;101823.00;;;-10.40
73937;BMP180;59249;59.736;30.568;2024-02-14T07:27:16;101824.00;;;-10.30
73937;BMP180;59249;59.736;30.568;2024-02-14T07:29:45;101823.00;;;-10.30
73937;BMP180;59249;59.736;30.568;2024-02-14T07:32:14;101825.00;;;-10.20
73937;BMP180;59249;59.736;30.568;2024-02-14T07:34:45;101825.00;;;-10.10
73937;BMP180;59249;59.736;30.568;2024-02-14T07:37:15;101830.00;;;-10.10
73937;BMP180;59249;59.736;30.568;2024-02-14T07:39:48;101820.00;;;-10.10
73937;BMP180;59249;59.736;30.568;2024-02-14T07:42:18;101820.00;;;-10.10
73937;BMP180;59249;59.736;30.568;2024-02-14T07:44:47;101827.00;;;-10.10
73937;BMP180;59249;59.736;30.568;2024-02-14T07:47:16;101831.00;;;-10.20
73937;BMP180;59249;59.736;30.568;2024-02-14T07:49:47;101823.00;;;-10.00
73937;BMP180;59249;59.736;30.568;2024-02-14T07:52:16;101837.00;;;-9.90
73937;BMP180;59249;59.736;30.568;2024-02-14T07:54:45;101831.00;;;-9.80
73937;BMP180;59249;59.736;30.568;2024-02-14T07:57:14;101826.00;;;-9.80
73937;BMP180;59249;59.736;30.568;2024-02-14T07:59:44;101831.00;;;-9.70
73937;BMP180;59249;59.736;30.568;2024-02-14T08:02:13;101840.00;;;-9.70
73937;BMP180;59249;59.736;30.568;2024-02-14T08:04:42;101828.00;;;-9.60
73937;BMP180;59249;59.736;30.568;2024-02-14T08:07:14;101829.00;;;-9.60
73937;BMP180;59249;59.736;30.568;2024-02-14T08:09:56;101822.00;;;-9.60
73937;BMP180;59249;59.736;30.568;2024-02-14T08:12:30;101835.00;;;-9.60
73937;BMP180;59249;59.736;30.568;2024-02-14T08:14:59;101838.00;;;-9.50
73937;BMP180;59249;59.736;30.568;2024-02-14T08:17:32;101826.00;;;-9.50
73937;BMP180;59249;59.736;30.568;2024-02-14T08:20:04;101835.00;;;-9.50
73937;BMP180;59249;59.736;30.568;2024-02-14T08:22:39;101846.00;;;-9.40
73937;BMP180;59249;59.736;30.568;2024-02-14T08:25:09;101841.00;;;-9.20
73937;BMP180;59249;59.736;30.568;2024-02-14T08:27:39;101839.00;;;-9.30
73937;BMP180;59249;59.736;30.568;2024-02-14T08:30:08;101840.00;;;-9.30
73937;BMP180;59249;59.736;30.568;2024-02-14T08:32:39;101849.00;;;-9.20
73937;BMP180;59249;59.736;30.568;2024-02-14T08:35:08;101843.00;;;-9.20
73937;BMP180;59249;59.736;30.568;2024-02-14T08:37:42;101853.00;;;-9.10
73937;BMP180;59249;59.736;30.568;2024-02-14T08:40:11;101851.00;;;-9.00
73937;BMP180;59249;59.736;30.568;2024-02-14T08:42:41;101857.00;;;-8.90
73937;BMP180;59249;59.736;30.568;2024-02-14T08:45:11;101837.00;;;-9.00
73937;BMP180;59249;59.736;30.568;2024-02-14T08:47:43;101843.00;;;-8.90
73937;BMP180;59249;59.736;30.568;2024-02-14T08:50:12;101853.00;;;-8.80
73937;BMP180;59249;59.736;30.568;2024-02-14T08:52:45;101869.00;;;-8.70
73937;BMP180;59249;59.736;30.568;2024-02-14T08:55:16;101862.00;;;-8.80
73937;BMP180;59249;59.736;30.568;2024-02-14T08:57:46;101870.00;;;-8.70
73937;BMP180;59249;59.736;30.568;2024-02-14T09:00:16;101858.00;;;-8.60
73937;BMP180;59249;59.736;30.568;2024-02-14T09:02:47;101857.00;;;-8.60
73937;BMP180;59249;59.736;30.568;2024-02-14T09:05:17;101865.00;;;-8.70
73937;BMP180;59249;59.736;30.568;2024-02-14T09:07:48;101865.00;;;-8.60
73937;BMP180;59249;59.736;30.568;2024-02-14T09:10:17;101861.00;;;-8.50
73937;BMP180;59249;59.736;30.568;2024-02-14T09:12:46;101864.00;;;-8.50
73937;BMP180;59249;59.736;30.568;2024-02-14T09:15:15;101865.00;;;-8.30
73937;BMP180;59249;59.736;30.568;2024-02-14T09:17:46;101861.00;;;-8.30
73937;BMP180;59249;59.736;30.568;2024-02-14T09:20:15;101858.00;;;-8.30
73937;BMP180;59249;59.736;30.568;2024-02-14T09:22:44;101860.00;;;-8.30
73937;BMP180;59249;59.736;30.568;2024-02-14T09:25:15;101860.00;;;-8.20
73937;BMP180;59249;59.736;30.568;2024-02-14T09:27:44;101858.00;;;-8.20
73937;BMP180;59249;59.736;30.568;2024-02-14T09:30:14;101869.00;;;-8.20
73937;BMP180;59249;59.736;30.568;2024-02-14T09:32:58;101855.00;;;-8.20
73937;BMP180;59249;59.736;30.568;2024-02-14T09:35:27;101857.00;;;-8.00
73937;BMP180;59249;59.736;30.568;2024-02-14T09:37:55;101854.00;;;-7.90
73937;BMP180;59249;59.736;30.568;2024-02-14T09:40:26;101861.00;;;-7.80
73937;BMP180;59249;59.736;30.568;2024-02-14T09:42:56;101856.00;;;-7.80
73937;BMP180;59249;59.736;30.568;2024-02-14T09:45:31;101875.00;;;-7.70
73937;BMP180;59249;59.736;30.568;2024-02-14T09:48:01;101850.00;;;-7.70
73937;BMP180;59249;59.736;30.568;2024-02-14T09:50:34;101860.00;;;-7.80
73937;BMP180;59249;59.736;30.568;2024-02-14T09:53:04;101858.00;;;-7.70
73937;BMP180;59249;59.736;30.568;2024-02-14T09:55:39;101874.00;;;-7.60
73937;BMP180;59249;59.736;30.568;2024-02-14T09:58:09;101879.00;;;-7.60
73937;BMP180;59249;59.736;30.568;2024-02-14T10:00:42;101878.00;;;-7.50
73937;BMP180;59249;59.736;30.568;2024-02-14T10:03:11;101869.00;;;-7.40
73937;BMP180;59249;59.736;30.568;2024-02-14T10:05:41;101870.00;;;-7.40
73937;BMP180;59249;59.736;30.568;2024-02-14T10:08:10;101859.00;;;-7.40
73937;BMP180;59249;59.736;30.568;2024-02-14T10:10:41;101855.00;;;-7.40
73937;BMP180;59249;59.736;30.568;2024-02-14T10:13:15;101859.00;;;-7.40
73937;BMP180;59249;59.736;30.568;2024-02-14T10:15:45;101853.00;;;-7.30
73937;BMP180;59249;59.736;30.568;2024-02-14T10:18:14;101863.00;;;-7.20
73937;BMP180;59249;59.736;30.568;2024-02-14T10:20:53;101860.00;;;-7.10
73937;BMP180;59249;59.736;30.568;2024-02-14T10:23:22;101875.00;;;-7.30
73937;BMP180;59249;59.736;30.568;2024-02-14T10:25:54;101864.00;;;-7.10
73937;BMP180;59249;59.736;30.568;2024-02-14T10:28:24;101869.00;;;-7.10
73937;BMP180;59249;59.736;30.568;2024-02-14T10:31:05;101870.00;;;-7.10
73937;BMP180;59249;59.736;30.568;2024-02-14T10:33:37;101872.00;;;-7.00
73937;BMP180;59249;59.736;30.568;2024-02-14T10:36:07;101873.00;;;-7.00
73937;BMP180;59249;59.736;30.568;2024-02-14T10:38:37;101877.00;;;-7.00
73937;BMP180;59249;59.736;30.568;2024-02-14T10:41:10;101879.00;;;-6.90
73937;BMP180;59249;59.736;30.568;2024-02-14T10:43:44;101871.00;;;-7.20
73937;BMP180;59249;59.736;30.568;2024-02-14T10:46:19;101863.00;;;-7.10
73937;BMP180;59249;59.736;30.568;2024-02-14T10:48:53;101879.00;;;-7.10
73937;BMP180;59249;59.736;30.568;2024-02-14T10:51:29;101861.00;;;-7.10
73937;BMP180;59249;59.736;30.568;2024-02-14T10:54:00;101864.00;;;-7.20
73937;BMP180;59249;59.736;30.568;2024-02-14T10:56:38;101853.00;;;-7.10
73937;BMP180;59249;59.736;30.568;2024-02-14T10:59:11;101870.00;;;-7.10
73937;BMP180;59249;59.736;30.568;2024-02-14T11:01:44;101859.00;;;-7.10
73937;BMP180;59249;59.736;30.568;2024-02-14T11:04:15;101876.00;;;-7.00
73937;BMP180;59249;59.736;30.568;2024-02-14T11:06:48;101862.00;;;-7.20
73937;BMP180;59249;59.736;30.568;2024-02-14T11:09:21;101855.00;;;-7.00
73937;BMP180;59249;59.736;30.568;2024-02-14T11:12:00;101877.00;;;-7.00
73937;BMP180;59249;59.736;30.568;2024-02-14T11:14:31;101875.00;;;-7.00
73937;BMP180;59249;59.736;30.568;2024-02-14T11:17:03;101876.00;;;-7.10
73937;BMP180;59249;59.736;30.568;2024-02-14T11:19:33;101885.00;;;-7.10
73937;BMP180;59249;59.736;30.568;2024-02-14T11:22:11;101870.00;;;-7.20
73937;BMP180;59249;59.736;30.568;2024-02-14T11:24:45;101889.00;;;-7.20
73937;BMP180;59249;59.736;30.568;2024-02-14T11:27:18;101874.00;;;-7.40
73937;BMP180;59249;59.736;30.568;2024-02-14T11:30:01;101864.00;;;-7.30
73937;BMP180;59249;59.736;30.568;2024-02-14T11:32:32;101872.00;;;-7.50
73937;BMP180;59249;59.736;30.568;2024-02-14T11:35:01;101863.00;;;-7.50
73937;BMP180;59249;59.736;30.568;2024-02-14T11:37:33;101873.00;;;-7.60
73937;BMP180;59249;59.736;30.568;2024-02-14T11:40:07;101882.00;;;-7.60
73937;BMP180;59249;59.736;30.568;2024-02-14T11:42:42;101870.00;;;-7.70
73937;BMP180;59249;59.736;30.568;2024-02-14T11:45:20;101870.00;;;-7.70
73937;BMP180;59249;59.736;30.568;2024-02-14T11:48:07;101884.00;;;-7.70
73937;BMP180;59249;59.736;30.568;2024-02-14T11:50:40;101872.00;;;-7.70
73937;BMP180;59249;59.736;30.568;2024-02-14T11:53:19;101873.00;;;-7.70
73937;BMP180;59249;59.736;30.568;2024-02-14T11:55:51;101878.00;;;-7.70
73937;BMP180;59249;59.736;30.568;2024-02-14T11:58:25;101878.00;;;-7.80
73937;BMP180;59249;59.736;30.568;2024-02-14T12:01:05;101870.00;;;-7.80
73937;BMP180;59249;59.736;30.568;2024-02-14T12:03:38;101872.00;;;-7.80
73937;BMP180;59249;59.736;30.568;2024-02-14T12:06:11;101859.00;;;-7.80
73937;BMP180;59249;59.736;30.568;2024-02-14T12:08:41;101858.00;;;-7.80
73937;BMP180;59249;59.736;30.568;2024-02-14T12:11:11;101869.00;;;-7.80
73937;BMP180;59249;59.736;30.568;2024-02-14T12:13:42;101858.00;;;-7.80
73937;BMP180;59249;59.736;30.568;2024-02-14T12:16:14;101863.00;;;-7.80
73937;BMP180;59249;59.736;30.568;2024-02-14T12:18:43;101862.00;;;-7.80
73937;BMP180;59249;59.736;30.568;2024-02-14T12:21:12;101863.00;;;-7.80
73937;BMP180;59249;59.736;30.568;2024-02-14T12:23:41;101859.00;;;-7.70
73937;BMP180;59249;59.736;30.568;2024-02-14T12:26:11;101855.00;;;-7.80
73937;BMP180;59249;59.736;30.568;2024-02-14T12:28:47;101850.00;;;-7.70
73937;BMP180;59249;59.736;30.568;2024-02-14T12:31:22;101852.00;;;-7.80
73937;BMP180;59249;59.736;30.568;2024-02-14T12:33:53;101848.00;;;-7.80
73937;BMP180;59249;59.736;30.568;2024-02-14T12:36:23;101851.00;;;-7.70
73937;BMP180;59249;59.736;30.568;2024-02-14T12:38:52;101851.00;;;-7.70
73937;BMP180;59249;59.736;30.568;2024-02-14T12:41:31;101849.00;;;-7.60
73937;BMP180;59249;59.736;30.568;2024-02-14T12:44:12;101848.00;;;-7.50
73937;BMP180;59249;59.736;30.568;2024-02-14T12:46:44;101841.00;;;-7.60
73937;BMP180;59249;59.736;30.568;2024-02-14T12:49:18;101836.00;;;-7.60
73937;BMP180;59249;59.736;30.568;2024-02-14T12:51:48;101851.00;;;-7.50
73937;BMP180;59249;59.736;30.568;2024-02-14T12:54:17;101849.00;;;-7.60
73937;BMP180;59249;59.736;30.568;2024-02-14T12:56:46;101847.00;;;-7.50
73937;BMP180;59249;59.736;30.568;2024-02-14T12:59:19;101847.00;;;-7.50
73937;BMP180;59249;59.736;30.568;2024-02-14T13:01:55;101850.00;;;-7.60
73937;BMP180;59249;59.736;30.568;2024-02-14T13:04:27;101844.00;;;-7.50
73937;BMP180;59249;59.736;30.568;2024-02-14T13:07:00;101846.00;;;-7.40
73937;BMP180;59249;59.736;30.568;2024-02-14T13:09:34;101847.00;;;-7.40
73937;BMP180;59249;59.736;30.568;2024-02-14T13:12:05;101844.00;;;-7.50
73937;BMP180;59249;59.736;30.568;2024-02-14T13:14:40;101836.00;;;-7.40
73937;BMP180;59249;59.736;30.568;2024-02-14T13:17:13;101842.00;;;-7.40
73937;BMP180;59249;59.736;30.568;2024-02-14T13:19:44;101852.00;;;-7.20
73937;BMP180;59249;59.736;30.568;2024-02-14T13:22:18;101849.00;;;-7.20
73937;BMP180;59249;59.736;30.568;2024-02-14T13:24:49;101856.00;;;-7.20
73937;BMP180;59249;59.736;30.568;2024-02-14T13:27:19;101860.00;;;-7.20
73937;BMP180;59249;59.736;30.568;2024-02-14T13:29:53;101848.00;;;-7.30
73937;BMP180;59249;59.736;30.568;2024-02-14T13:32:25;101849.00;;;-7.40
73937;BMP180;59249;59.736;30.568;2024-02-14T13:34:55;101853.00;;;-7.20
73937;BMP180;59249;59.736;30.568;2024-02-14T13:37:27;101855.00;;;-7.20
73937;BMP180;59249;59.736;30.568;2024-02-14T13:40:13;101854.00;;;-7.30
73937;BMP180;59249;59.736;30.568;2024-02-14T13:42:57;101846.00;;;-7.30
73937;BMP180;59249;59.736;30.568;2024-02-14T13:45:40;101850.00;;;-7.30
73937;BMP180;59249;59.736;30.568;2024-02-14T13:48:12;101845.00;;;-7.20
73937;BMP180;59249;59.736;30.568;2024-02-14T13:50:42;101846.00;;;-7.30
73937;BMP180;59249;59.736;30.568;2024-02-14T13:53:14;101851.00;;;-7.30
73937;BMP180;59249;59.736;30.568;2024-02-14T13:55:44;101846.00;;;-7.20
73937;BMP180;59249;59.736;30.568;2024-02-14T13:58:13;101851.00;;;-7.30
73937;BMP180;59249;59.736;30.568;2024-02-14T14:00:47;101851.00;;;-7.30
73937;BMP180;59249;59.736;30.568;2024-02-14T14:03:17;101852.00;;;-7.30
73937;BMP180;59249;59.736;30.568;2024-02-14T14:05:46;101855.00;;;-7.30
73937;BMP180;59249;59.736;30.568;2024-02-14T14:08:17;101849.00;;;-7.40
73937;BMP180;59249;59.736;30.568;2024-02-14T14:10:46;101859.00;;;-7.50